Time;durP1;ratioP1;P1;durP2;ratioP2;P2;SDS_P1;SDS_P2;PMS_P1;PMS_P2;Temp;Humidity;BMP_temperature;BMP_pressure;BME280_temperature;BME280_humidity;BME280_pressure;Samples;Min_cycle;Max_cycle;Signal;HPM_P1;HPM_P2
2024/01/22 00:00:10;;;;;;;8.18;4.07;;;;;;;23.19;40.29;100870.63;2089528;28;20191;-59
2024/01/22 00:01:17;;;;;;;7.75;3.60;;;;;;;23.19;40.39;100870.63;2090813;28;21039;-60
2024/01/22 00:02:19;;;;;;;9.85;4.07;;;;;;;23.20;40.28;100865.94;2090343;28;20025;-60
2024/01/22 00:03:23;;;;;;;8.50;3.70;;;;;;;23.19;40.24;100867.88;2082387;28;20088;-60
2024/01/22 00:04:25;;;;;;;10.07;4.45;;;;;;;23.18;40.21;100860.81;2083319;28;20147;-60
2024/01/22 00:05:27;;;;;;;7.95;3.65;;;;;;;23.19;40.33;100854.19;2098875;28;20037;-60
2024/01/22 00:06:34;;;;;;;6.68;3.80;;;;;;;23.19;40.32;100859.66;2099736;28;20017;-60
2024/01/22 00:07:36;;;;;;;8.80;4.03;;;;;;;23.20;40.40;100868.69;2098869;28;20017;-60
2024/01/22 00:08:38;;;;;;;7.78;3.90;;;;;;;23.19;40.35;100859.66;2099591;28;20806;-59
2024/01/22 00:09:39;;;;;;;8.52;3.55;;;;;;;23.19;40.32;100865.16;2081671;28;20026;-59
2024/01/22 00:10:41;;;;;;;7.15;3.58;;;;;;;23.19;40.33;100878.88;2073732;28;20026;-61
2024/01/22 00:11:43;;;;;;;9.00;3.88;;;;;;;23.20;40.48;100893.38;2090590;28;21257;-60
2024/01/22 00:12:45;;;;;;;6.82;3.25;;;;;;;23.20;40.26;100894.16;2090430;28;20028;-60
2024/01/22 00:13:47;;;;;;;8.20;3.65;;;;;;;23.19;40.43;100898.06;2090596;28;20035;-60
2024/01/22 00:14:49;;;;;;;7.13;3.72;;;;;;;23.20;40.34;100894.16;2099016;28;20020;-60
2024/01/22 00:15:51;;;;;;;10.68;4.07;;;;;;;23.19;40.31;100889.84;2099081;28;20135;-60
2024/01/22 00:16:53;;;;;;;7.80;3.72;;;;;;;23.20;40.34;100887.88;2074749;28;20030;-60
2024/01/22 00:17:54;;;;;;;7.45;4.00;;;;;;;23.19;40.28;100878.88;2074355;28;20038;-60
2024/01/22 00:18:59;;;;;;;9.15;3.58;;;;;;;23.19;40.46;100878.88;2099226;28;20124;-60
2024/01/22 00:20:00;;;;;;;8.82;3.88;;;;;;;23.19;40.42;100870.63;2082247;28;20030;-60
2024/01/22 00:21:02;;;;;;;6.75;3.38;;;;;;;23.19;40.52;100876.13;2082663;28;20975;-60
2024/01/22 00:22:04;;;;;;;8.18;3.50;;;;;;;23.20;40.47;100865.94;2098944;28;20966;-59
2024/01/22 00:23:07;;;;;;;7.03;3.25;;;;;;;23.19;40.46;100856.91;2082339;28;20096;-60
2024/01/22 00:24:08;;;;;;;8.10;3.70;;;;;;;23.19;40.47;100859.66;2082926;28;20106;-59
2024/01/22 00:25:10;;;;;;;7.13;3.70;;;;;;;23.19;40.46;100853.38;2090928;28;20021;-60
2024/01/22 00:26:12;;;;;;;8.55;3.83;;;;;;;23.18;40.53;100851.81;2074195;28;20018;-60
2024/01/22 00:27:14;;;;;;;11.02;4.18;;;;;;;23.19;40.47;100854.19;2066597;28;21271;-59
2024/01/22 00:28:16;;;;;;;6.10;3.30;;;;;;;23.19;40.49;100859.66;2082539;28;20038;-59
2024/01/22 00:29:18;;;;;;;6.60;3.33;;;;;;;23.20;40.46;100852.22;2098945;28;20032;-60
2024/01/22 00:30:19;;;;;;;7.15;3.33;;;;;;;23.19;40.50;100842.41;2098847;28;20866;-60
2024/01/22 00:31:21;;;;;;;7.55;3.47;;;;;;;23.19;40.49;100834.97;2082270;28;21038;-60
2024/01/22 00:32:22;;;;;;;8.13;3.35;;;;;;;23.19;40.56;100832.22;2090699;28;20018;-60
2024/01/22 00:33:24;;;;;;;6.13;3.40;;;;;;;23.19;40.54;100824.00;2099013;28;20025;-60
2024/01/22 00:34:28;;;;;;;6.68;2.90;;;;;;;23.19;40.62;100821.25;2082807;28;20923;-60
2024/01/22 00:35:30;;;;;;;5.88;3.17;;;;;;;23.18;40.51;100819.69;2082418;28;20166;-59
2024/01/22 00:36:31;;;;;;;8.57;3.30;;;;;;;23.19;40.62;100821.25;2099005;28;20918;-60
2024/01/22 00:37:33;;;;;;;7.75;3.17;;;;;;;23.19;40.52;100804.00;2098703;28;20021;-59
2024/01/22 00:38:34;;;;;;;9.18;3.40;;;;;;;23.19;40.58;100815.78;2082494;28;20072;-60
2024/01/22 00:39:36;;;;;;;7.00;3.63;;;;;;;23.19;40.52;100818.50;2065873;28;20019;-60
2024/01/22 00:40:37;;;;;;;7.30;3.72;;;;;;;23.19;40.57;100824.00;2074459;28;20838;-60
2024/01/22 00:41:39;;;;;;;5.53;3.20;;;;;;;23.19;40.55;100824.00;2082061;28;20034;-60
2024/01/22 00:42:43;;;;;;;5.82;3.20;;;;;;;23.19;40.57;100810.28;2074472;28;20031;-60
2024/01/22 00:43:47;;;;;;;5.32;2.85;;;;;;;23.19;40.58;100825.94;2091085;28;20037;-60
2024/01/22 00:44:50;;;;;;;5.88;3.38;;;;;;;23.18;40.57;100816.94;2083254;28;20030;-60
2024/01/22 00:45:53;;;;;;;8.52;3.50;;;;;;;23.20;40.62;100817.34;2083022;28;20080;-61
2024/01/22 00:46:55;;;;;;;8.52;3.60;;;;;;;23.19;40.61;100814.97;2090767;28;20033;-60
2024/01/22 00:47:56;;;;;;;6.50;3.15;;;;;;;23.20;40.60;100819.31;2090509;28;20024;-60
2024/01/22 00:48:58;;;;;;;5.32;2.92;;;;;;;23.20;40.62;100816.56;2099152;28;20939;-60
2024/01/22 00:50:00;;;;;;;7.10;3.60;;;;;;;23.20;40.73;100811.06;2098689;28;20025;-60
2024/01/22 00:51:01;;;;;;;6.75;3.30;;;;;;;23.20;40.58;100813.81;2074183;28;20165;-60
2024/01/22 00:52:04;;;;;;;7.00;3.15;;;;;;;23.19;40.75;100815.78;2082259;28;20077;-60
2024/01/22 00:53:05;;;;;;;7.78;3.33;;;;;;;23.19;40.80;100810.28;2098868;28;20787;-60
2024/01/22 00:54:07;;;;;;;6.20;3.45;;;;;;;23.20;40.60;100811.88;2090538;28;20136;-60
2024/01/22 00:55:08;;;;;;;5.00;2.83;;;;;;;23.19;40.71;100813.03;2090638;28;20030;-60
2024/01/22 00:56:10;;;;;;;5.43;3.10;;;;;;;23.19;40.74;100810.28;2082421;28;20034;-60
2024/01/22 00:57:12;;;;;;;6.28;3.00;;;;;;;23.19;40.78;100804.81;2082665;28;20026;-60
2024/01/22 00:58:13;;;;;;;5.30;2.95;;;;;;;23.19;40.79;100802.06;2090117;28;20033;-60
2024/01/22 00:59:18;;;;;;;6.32;3.45;;;;;;;23.19;40.73;100806.75;2075175;28;21031;-60
2024/01/22 01:00:23;;;;;;;4.50;2.67;;;;;;;23.20;40.74;100794.63;2082692;28;20132;-60
2024/01/22 01:01:24;;;;;;;6.07;3.13;;;;;;;23.19;40.78;100785.59;2082365;28;20034;-60
2024/01/22 01:02:26;;;;;;;5.20;3.47;;;;;;;23.20;40.81;100791.88;2090151;28;20038;-60
2024/01/22 01:03:29;;;;;;;6.38;3.05;;;;;;;23.20;40.86;100789.91;2098946;28;20021;-60
2024/01/22 01:04:30;;;;;;;5.82;2.90;;;;;;;23.20;40.78;100786.38;2090304;28;20227;-60
2024/01/22 01:05:32;;;;;;;6.55;3.00;;;;;;;23.18;40.81;100786.75;2082703;28;20880;-60
2024/01/22 01:06:34;;;;;;;6.45;2.97;;;;;;;23.19;40.81;100782.84;2099006;28;20033;-59
2024/01/22 01:07:35;;;;;;;5.85;3.20;;;;;;;23.20;40.84;100784.44;2107543;28;20146;-60
2024/01/22 01:08:37;;;;;;;5.40;2.97;;;;;;;23.19;40.83;100780.13;2106827;28;20118;-60
2024/01/22 01:09:39;;;;;;;7.35;3.08;;;;;;;23.19;40.87;100774.63;2082331;28;20022;-60
2024/01/22 01:10:40;;;;;;;5.50;3.05;;;;;;;23.19;40.80;100779.31;2073992;28;20100;-60
2024/01/22 01:11:42;;;;;;;6.72;2.95;;;;;;;23.20;40.89;100778.16;2082175;28;20034;-60
2024/01/22 01:12:43;;;;;;;6.95;3.05;;;;;;;23.19;40.92;100774.63;2073826;28;20039;-60
2024/01/22 01:13:46;;;;;;;5.38;2.97;;;;;;;23.19;40.86;100771.88;2073345;28;20957;-60
2024/01/22 01:14:48;;;;;;;5.68;3.28;;;;;;;23.18;40.95;100775.78;2082187;28;20880;-60
2024/01/22 01:15:52;;;;;;;5.13;2.75;;;;;;;23.18;40.82;100770.31;2090738;28;20111;-60
2024/01/22 01:16:54;;;;;;;5.75;2.78;;;;;;;23.19;40.95;100782.06;2098250;28;20025;-60
2024/01/22 01:17:55;;;;;;;6.32;2.90;;;;;;;23.18;40.99;100770.31;2098598;28;20049;-60
2024/01/22 01:19:00;;;;;;;5.93;2.92;;;;;;;23.19;40.95;100771.88;2098253;28;21164;-60
2024/01/22 01:20:03;;;;;;;4.70;2.55;;;;;;;23.18;41.00;100766.78;2098643;28;20028;-60
2024/01/22 01:21:05;;;;;;;4.38;2.55;;;;;;;23.18;40.90;100775.00;2098611;28;20037;-60
2024/01/22 01:22:07;;;;;;;4.90;2.60;;;;;;;23.19;40.96;100771.09;2090442;28;20080;-60
2024/01/22 01:23:09;;;;;;;5.85;3.00;;;;;;;23.18;40.93;100772.25;2073690;28;20046;-60
2024/01/22 01:24:10;;;;;;;4.82;2.58;;;;;;;23.18;40.98;100775.78;2082492;28;20022;-60
2024/01/22 01:25:12;;;;;;;5.95;2.95;;;;;;;23.18;41.00;100767.56;2107243;28;20021;-60
2024/01/22 01:26:14;;;;;;;6.18;3.15;;;;;;;23.17;41.11;100776.94;2098683;28;20036;-60
2024/01/22 01:27:18;;;;;;;6.40;2.78;;;;;;;23.16;41.05;100769.84;2098626;28;20060;-60
2024/01/22 01:28:20;;;;;;;4.63;2.60;;;;;;;23.18;41.02;100775.78;2090185;28;20033;-59
2024/01/22 01:29:21;;;;;;;5.80;3.03;;;;;;;23.18;40.97;100775.00;2081889;28;20033;-59
2024/01/22 01:30:23;;;;;;;5.47;2.72;;;;;;;23.17;41.07;100771.47;2098812;28;20021;-60
2024/01/22 01:31:28;;;;;;;5.28;2.63;;;;;;;23.17;41.11;100765.97;2106985;28;20072;-60
2024/01/22 01:32:30;;;;;;;6.10;2.80;;;;;;;23.18;40.91;100756.59;2106643;28;20056;-60
2024/01/22 01:33:32;;;;;;;4.07;2.60;;;;;;;23.17;41.06;100763.25;2098299;28;20844;-60
2024/01/22 01:34:34;;;;;;;6.20;3.17;;;;;;;23.18;41.08;100753.84;2090644;28;20068;-60
2024/01/22 01:35:36;;;;;;;5.35;2.88;;;;;;;23.17;41.07;100749.53;2089909;28;20037;-60
2024/01/22 01:36:37;;;;;;;5.53;3.05;;;;;;;23.18;41.15;100745.63;2082464;28;20084;-59
2024/01/22 01:37:39;;;;;;;5.75;2.58;;;;;;;23.19;41.14;100754.63;2082276;28;20760;-59
2024/01/22 01:38:40;;;;;;;3.72;2.25;;;;;;;23.17;41.05;100741.28;2073887;28;20809;-59
2024/01/22 01:39:42;;;;;;;5.45;2.58;;;;;;;23.18;41.15;100742.09;2082137;28;21315;-60
2024/01/22 01:40:44;;;;;;;6.20;2.85;;;;;;;23.18;41.18;100742.88;2099220;28;20844;-60
2024/01/22 01:41:49;;;;;;;5.40;2.50;;;;;;;23.18;41.14;100744.81;2107179;28;20020;-60
2024/01/22 01:42:53;;;;;;;5.07;2.50;;;;;;;23.17;41.08;100730.31;2106446;28;20017;-60
2024/01/22 01:43:55;;;;;;;5.40;2.78;;;;;;;23.18;41.14;100731.91;2098350;28;20872;-60
2024/01/22 01:44:57;;;;;;;4.93;2.60;;;;;;;23.18;41.17;100731.13;2090568;28;20132;-60
2024/01/22 01:45:59;;;;;;;3.83;2.30;;;;;;;23.18;41.30;100737.38;2098342;28;20114;-60
2024/01/22 01:47:01;;;;;;;4.75;2.30;;;;;;;23.17;41.20;100727.59;2098706;28;20045;-60
2024/01/22 01:48:03;;;;;;;5.07;2.33;;;;;;;23.18;41.20;100725.63;2090267;28;20033;-60
2024/01/22 01:49:05;;;;;;;5.13;2.70;;;;;;;23.18;41.14;100729.16;2082405;28;20061;-60
2024/01/22 01:50:07;;;;;;;5.10;2.60;;;;;;;23.17;41.19;100727.59;2074180;28;20022;-60
2024/01/22 01:51:10;;;;;;;5.80;2.70;;;;;;;23.17;41.15;100719.34;2082235;28;20050;-59
2024/01/22 01:52:13;;;;;;;5.47;2.40;;;;;;;23.17;41.31;100711.13;2090125;28;20868;-59
2024/01/22 01:53:15;;;;;;;4.03;2.50;;;;;;;23.18;41.24;100725.63;2089978;28;20099;-59
2024/01/22 01:54:17;;;;;;;5.38;2.47;;;;;;;23.18;41.19;100720.94;2090258;28;20080;-60
2024/01/22 01:55:20;;;;;;;5.68;2.63;;;;;;;23.17;41.27;100719.34;2098591;28;20040;-60
2024/01/22 01:56:22;;;;;;;6.50;2.70;;;;;;;23.17;41.25;100718.53;2098292;28;20127;-59
2024/01/22 01:57:24;;;;;;;4.78;2.50;;;;;;;23.18;41.15;100709.16;2082560;28;20054;-60
2024/01/22 01:58:28;;;;;;;3.85;2.40;;;;;;;23.17;41.23;100711.13;2090041;28;20922;-64
2024/01/22 01:59:30;;;;;;;3.95;2.17;;;;;;;23.19;41.23;100708.78;2098658;28;20077;-60
2024/01/22 02:00:31;;;;;;;4.28;2.35;;;;;;;23.18;41.27;100709.97;2073792;28;20034;-60
2024/01/22 02:01:33;;;;;;;4.00;2.00;;;;;;;23.18;41.44;100709.97;2082239;28;20038;-60
2024/01/22 02:02:38;;;;;;;6.25;2.83;;;;;;;23.18;41.34;100715.44;2098423;28;20029;-60
2024/01/22 02:03:40;;;;;;;4.82;2.42;;;;;;;23.18;41.43;100715.44;2082431;28;20132;-61
2024/01/22 02:04:42;;;;;;;4.28;2.40;;;;;;;23.18;41.38;100709.16;2074092;28;20021;-61
2024/01/22 02:05:45;;;;;;;3.88;2.30;;;;;;;23.18;41.65;100715.44;2073914;28;20030;-60
2024/01/22 02:06:47;;;;;;;5.35;2.58;;;;;;;23.18;41.38;100709.97;2082306;28;20061;-61
2024/01/22 02:07:48;;;;;;;3.88;1.92;;;;;;;23.18;41.39;100704.47;2082261;28;20069;-61
2024/01/22 02:08:51;;;;;;;3.60;2.15;;;;;;;23.18;41.41;100690.75;2073626;28;20777;-60
2024/01/22 02:09:53;;;;;;;5.75;2.33;;;;;;;23.18;41.43;100693.50;2074141;28;20038;-60
2024/01/22 02:10:57;;;;;;;4.45;2.25;;;;;;;23.17;41.42;100691.94;2082605;28;20825;-61
2024/01/22 02:11:59;;;;;;;3.53;2.00;;;;;;;23.19;41.47;100694.28;2090285;28;20046;-60
2024/01/22 02:13:06;;;;;;;5.15;2.38;;;;;;;23.18;41.38;100703.69;2090099;28;20042;-60
2024/01/22 02:14:08;;;;;;;5.78;2.85;;;;;;;23.17;40.92;100702.91;2091242;28;20918;-60
2024/01/22 02:15:09;;;;;;;5.28;3.28;;;;;;;23.14;40.31;100703.63;2090050;28;20860;-60
2024/01/22 02:16:11;;;;;;;5.88;3.20;;;;;;;23.11;39.55;100704.34;2081861;28;20148;-60
2024/01/22 02:17:13;;;;;;;5.35;3.22;;;;;;;23.06;39.20;100704.59;2081686;28;20955;-60
2024/01/22 02:18:16;;;;;;;7.20;3.50;;;;;;;23.02;38.82;100698.25;2090187;28;20160;-60
2024/01/22 02:19:17;;;;;;;6.70;3.25;;;;;;;22.96;38.50;100686.78;2106685;28;20021;-61
2024/01/22 02:20:19;;;;;;;6.43;3.60;;;;;;;22.90;38.39;100691.72;2089950;28;20042;-60
2024/01/22 02:21:20;;;;;;;7.00;3.17;;;;;;;22.86;37.89;100687.31;2081641;28;20026;-60
2024/01/22 02:22:21;;;;;;;6.32;3.35;;;;;;;22.79;37.83;100698.09;2081837;28;20053;-60
2024/01/22 02:23:25;;;;;;;5.57;3.33;;;;;;;22.73;37.42;100689.38;2081327;28;20072;-60
2024/01/22 02:24:27;;;;;;;5.75;3.30;;;;;;;22.67;37.25;100691.59;2098346;28;20044;-60
2024/01/22 02:25:30;;;;;;;7.55;3.83;;;;;;;22.60;37.12;100685.97;2097976;28;20114;-60
2024/01/22 02:26:31;;;;;;;21.27;3.70;;;;;;;22.55;36.87;100682.72;2090405;28;20477;-60
2024/01/22 02:27:33;;;;;;;6.47;3.63;;;;;;;22.48;36.66;100677.03;2081548;28;20232;-60
2024/01/22 02:28:35;;;;;;;5.55;3.30;;;;;;;22.41;36.65;100672.19;2065532;28;20146;-61
2024/01/22 02:29:37;;;;;;;8.68;3.80;;;;;;;22.34;36.21;100675.56;2073389;28;20853;-60
2024/01/22 02:30:39;;;;;;;5.97;3.55;;;;;;;22.28;36.04;100674.25;2082013;28;20050;-60
2024/01/22 02:31:40;;;;;;;6.22;3.95;;;;;;;22.21;35.88;100669.41;2081459;28;20137;-60
2024/01/22 02:32:42;;;;;;;7.03;3.65;;;;;;;22.14;35.98;100657.44;2090197;28;20780;-60
2024/01/22 02:33:44;;;;;;;6.63;3.90;;;;;;;22.08;35.78;100656.13;2089775;28;20025;-60
2024/01/22 02:34:47;;;;;;;8.27;3.90;;;;;;;22.02;35.78;100657.53;2081470;28;20108;-60
2024/01/22 02:35:49;;;;;;;6.78;4.07;;;;;;;21.97;35.69;100655.84;2081877;28;20030;-60
2024/01/22 02:36:53;;;;;;;6.25;4.03;;;;;;;21.89;35.21;100662.31;2082034;28;20038;-60
2024/01/22 02:37:54;;;;;;;8.27;3.47;;;;;;;21.83;35.32;100669.97;2089738;28;20053;-60
2024/01/22 02:38:56;;;;;;;6.88;3.85;;;;;;;21.77;35.27;100674.13;2089813;28;20174;-60
2024/01/22 02:39:57;;;;;;;7.13;3.75;;;;;;;21.71;35.25;100678.25;2089831;28;20060;-60
2024/01/22 02:40:59;;;;;;;7.30;3.88;;;;;;;21.66;35.31;100665.66;2089827;28;20147;-60
2024/01/22 02:42:02;;;;;;;5.43;3.55;;;;;;;21.60;35.19;100667.03;2073707;28;20869;-61
2024/01/22 02:43:04;;;;;;;5.78;3.40;;;;;;;21.57;35.13;100666.94;2073861;28;20026;-60
2024/01/22 02:44:06;;;;;;;7.32;3.50;;;;;;;21.50;35.26;100657.41;2081697;28;20124;-61
2024/01/22 02:45:10;;;;;;;7.25;3.65;;;;;;;21.45;35.22;100654.91;2081854;28;20050;-60
2024/01/22 02:46:12;;;;;;;11.32;4.03;;;;;;;21.42;34.96;100661.09;2082124;28;20092;-60
2024/01/22 02:47:13;;;;;;;6.38;3.70;;;;;;;21.38;34.96;100652.00;2089799;28;20110;-60
2024/01/22 02:48:15;;;;;;;6.68;3.78;;;;;;;21.34;34.94;100653.78;2089363;28;20037;-60
2024/01/22 02:49:18;;;;;;;9.18;4.10;;;;;;;21.29;34.91;100640.38;2081992;28;20030;-61
2024/01/22 02:50:20;;;;;;;6.80;3.70;;;;;;;21.25;34.90;100642.22;2081596;28;20025;-60
2024/01/22 02:51:24;;;;;;;7.10;3.80;;;;;;;21.20;34.70;100635.06;2073717;28;20073;-61
2024/01/22 02:52:26;;;;;;;6.03;3.53;;;;;;;21.17;34.76;100635.75;2081826;28;20145;-61
2024/01/22 02:53:27;;;;;;;8.80;3.47;;;;;;;21.14;34.90;100630.19;2081268;28;20819;-61
2024/01/22 02:54:28;;;;;;;6.88;3.20;;;;;;;21.11;34.96;100633.63;2081888;28;20808;-61
2024/01/22 02:55:32;;;;;;;7.95;3.70;;;;;;;21.07;34.92;100628.06;2081547;28;20105;-61
2024/01/22 02:56:34;;;;;;;8.52;4.00;;;;;;;21.04;34.88;100637.75;2082235;28;20880;-61
2024/01/22 02:57:36;;;;;;;10.05;4.03;;;;;;;21.02;34.71;100628.28;2081585;28;20042;-61
2024/01/22 02:58:38;;;;;;;6.80;3.97;;;;;;;20.99;34.68;100621.56;2082021;28;20125;-61
2024/01/22 02:59:42;;;;;;;5.65;3.67;;;;;;;20.95;34.74;100612.50;2089753;28;20032;-61
2024/01/22 03:00:43;;;;;;;6.22;3.60;;;;;;;20.93;34.57;100617.53;2081668;28;20072;-60
2024/01/22 03:01:45;;;;;;;6.68;3.85;;;;;;;20.91;34.54;100617.06;2081774;28;20136;-60
2024/01/22 03:02:49;;;;;;;6.78;3.60;;;;;;;20.89;34.67;100616.59;2098749;28;20850;-60
2024/01/22 03:03:50;;;;;;;7.30;4.00;;;;;;;20.85;34.62;100607.50;2106280;28;20048;-61
2024/01/22 03:04:52;;;;;;;6.10;3.42;;;;;;;20.82;34.64;100606.25;2106288;28;21344;-60
2024/01/22 03:05:55;;;;;;;8.85;3.90;;;;;;;20.80;34.54;100596.81;2098745;28;20041;-60
2024/01/22 03:06:56;;;;;;;8.05;3.80;;;;;;;20.75;34.63;100589.69;2089726;28;20064;-59
2024/01/22 03:07:58;;;;;;;7.50;3.95;;;;;;;20.74;34.44;100598.19;2073378;28;21415;-60
2024/01/22 03:08:59;;;;;;;8.05;3.85;;;;;;;20.70;34.48;100587.19;2081376;28;20896;-60
2024/01/22 03:10:01;;;;;;;6.43;4.13;;;;;;;20.68;34.34;100578.56;2081550;28;20037;-60
2024/01/22 03:11:04;;;;;;;7.15;3.60;;;;;;;20.66;34.57;100585.50;2090071;28;20099;-62
2024/01/22 03:12:07;;;;;;;11.52;3.72;;;;;;;20.65;34.57;100573.78;2097719;28;20055;-61
2024/01/22 03:13:08;;;;;;;6.20;3.90;;;;;;;20.63;34.66;100580.72;2073493;28;20031;-62
2024/01/22 03:14:10;;;;;;;7.38;3.78;;;;;;;20.60;34.43;100572.06;2081646;28;20033;-61
2024/01/22 03:15:11;;;;;;;7.10;4.10;;;;;;;20.57;34.54;100570.03;2089636;28;20133;-61
2024/01/22 03:16:14;;;;;;;7.25;3.90;;;;;;;20.55;34.58;100577.78;2073341;28;20031;-62
2024/01/22 03:17:18;;;;;;;6.57;3.50;;;;;;;20.52;34.38;100564.81;2089826;28;20042;-62
2024/01/22 03:18:20;;;;;;;8.05;4.07;;;;;;;20.50;34.34;100564.34;2089357;28;20030;-62
2024/01/22 03:19:22;;;;;;;6.13;3.38;;;;;;;20.47;34.33;100556.81;2089869;28;20124;-61
2024/01/22 03:20:24;;;;;;;6.03;3.70;;;;;;;20.46;34.40;100565.34;2089724;28;20072;-61
2024/01/22 03:21:29;;;;;;;10.52;3.90;;;;;;;20.42;34.17;100554.31;2097912;28;20029;-62
2024/01/22 03:22:30;;;;;;;6.55;3.70;;;;;;;20.40;34.30;100559.34;2089392;28;20730;-60
2024/01/22 03:23:31;;;;;;;7.03;3.90;;;;;;;20.37;34.08;100554.59;2073264;28;20030;-60
2024/01/22 03:24:33;;;;;;;7.13;3.80;;;;;;;20.35;34.20;100554.13;2089501;28;20034;-60
2024/01/22 03:25:35;;;;;;;7.30;3.80;;;;;;;20.32;34.18;100549.34;2089437;28;20072;-60
2024/01/22 03:26:37;;;;;;;6.30;3.70;;;;;;;20.29;34.20;100550.03;2073174;28;20865;-60
2024/01/22 03:27:39;;;;;;;9.00;3.80;;;;;;;20.27;34.39;100546.84;2089682;28;20191;-60
2024/01/22 03:28:40;;;;;;;7.20;3.70;;;;;;;20.24;34.31;100545.63;2106268;28;20098;-60
2024/01/22 03:29:42;;;;;;;9.48;3.88;;;;;;;20.22;34.04;100544.38;2097793;28;20027;-60
2024/01/22 03:30:44;;;;;;;5.75;3.63;;;;;;;20.18;34.26;100538.00;2089673;28;20028;-60
2024/01/22 03:31:45;;;;;;;5.85;3.50;;;;;;;20.16;34.32;100532.09;2081798;28;20032;-60
2024/01/22 03:32:47;;;;;;;5.32;3.50;;;;;;;20.13;34.32;100528.09;2081602;28;20069;-60
2024/01/22 03:33:48;;;;;;;7.50;3.90;;;;;;;20.09;34.26;100522.53;2081423;28;20038;-60
2024/01/22 03:34:50;;;;;;;6.68;4.00;;;;;;;20.08;34.35;100520.13;2073167;28;20034;-60
2024/01/22 03:35:55;;;;;;;5.63;3.58;;;;;;;20.05;34.36;100510.72;2081738;28;20226;-60
2024/01/22 03:36:57;;;;;;;6.82;4.10;;;;;;;20.04;34.21;100511.84;2082015;28;20046;-60
2024/01/22 03:37:58;;;;;;;9.07;3.90;;;;;;;20.02;34.08;100507.88;2074699;28;20090;-60
2024/01/22 03:39:03;;;;;;;7.68;4.00;;;;;;;19.98;34.26;100505.03;2083566;28;20119;-61
2024/01/22 03:40:09;;;;;;;7.18;3.65;;;;;;;19.97;34.12;100505.38;2091229;28;20025;-60
2024/01/22 03:41:10;;;;;;;8.50;3.90;;;;;;;19.94;34.14;100489.69;2090912;28;20052;-60
2024/01/22 03:42:12;;;;;;;7.57;4.10;;;;;;;19.91;33.99;100491.19;2083239;28;20042;-60
2024/01/22 03:43:14;;;;;;;6.75;3.60;;;;;;;19.89;34.09;100482.53;2082618;28;20073;-60
2024/01/22 03:44:15;;;;;;;5.63;3.38;;;;;;;19.85;34.12;100476.19;2082986;28;20034;-60
2024/01/22 03:45:17;;;;;;;7.03;4.10;;;;;;;19.82;33.99;100468.69;2099342;28;20071;-61
2024/01/22 03:46:18;;;;;;;6.50;3.47;;;;;;;19.79;33.82;100466.63;2082736;28;20026;-60
2024/01/22 03:47:20;;;;;;;7.40;3.97;;;;;;;19.78;34.04;100486.88;2066565;28;20042;-60
2024/01/22 03:48:21;;;;;;;6.32;3.95;;;;;;;19.74;34.13;100464.94;2082947;28;20123;-61
2024/01/22 03:49:23;;;;;;;6.30;3.67;;;;;;;19.72;34.22;100458.25;2091126;28;20123;-60
2024/01/22 03:50:26;;;;;;;7.10;3.85;;;;;;;19.70;34.33;100463.22;2099334;28;20076;-60
2024/01/22 03:51:27;;;;;;;6.85;4.07;;;;;;;19.67;34.24;100451.88;2098870;28;20632;-61
2024/01/22 03:52:29;;;;;;;6.07;3.80;;;;;;;19.66;34.25;100453.00;2099536;28;20029;-60
2024/01/22 03:53:31;;;;;;;6.28;3.70;;;;;;;19.65;34.27;100454.16;2090763;28;20132;-60
2024/01/22 03:54:34;;;;;;;7.22;3.85;;;;;;;19.62;34.23;100454.81;2091236;28;20068;-60
2024/01/22 03:55:36;;;;;;;7.05;4.03;;;;;;;19.62;34.37;100446.63;2099293;28;20938;-60
2024/01/22 03:56:37;;;;;;;6.40;3.88;;;;;;;19.61;34.59;100442.31;2090814;28;20036;-61
2024/01/22 03:57:42;;;;;;;6.43;3.58;;;;;;;19.60;34.64;100437.19;2091026;28;20028;-61
2024/01/22 03:58:44;;;;;;;6.43;3.50;;;;;;;19.61;34.59;100436.06;2091398;28;20033;-61
2024/01/22 03:59:49;;;;;;;6.13;3.72;;;;;;;19.59;34.52;100425.47;2090766;28;20033;-60
2024/01/22 04:00:50;;;;;;;6.20;3.50;;;;;;;19.59;34.53;100430.94;2091157;28;20036;-60
2024/01/22 04:01:55;;;;;;;6.95;3.70;;;;;;;19.59;34.44;100417.31;2099333;28;20029;-59
2024/01/22 04:02:57;;;;;;;9.95;3.45;;;;;;;19.59;34.31;100409.13;2107795;28;20024;-60
2024/01/22 04:04:00;;;;;;;5.57;3.60;;;;;;;19.60;34.08;100418.88;2107031;28;20893;-60
2024/01/22 04:05:01;;;;;;;6.45;3.83;;;;;;;19.57;34.10;100411.38;2090733;28;20151;-60
2024/01/22 04:06:04;;;;;;;6.20;3.63;;;;;;;19.56;34.19;100407.06;2082890;28;20037;-60
2024/01/22 04:07:05;;;;;;;5.57;3.40;;;;;;;19.57;34.21;100414.13;2083269;28;20026;-60
2024/01/22 04:08:07;;;;;;;6.65;3.45;;;;;;;19.56;34.08;100398.91;2083074;28;20029;-60
2024/01/22 04:09:10;;;;;;;6.10;4.00;;;;;;;19.56;34.04;100404.34;2099261;28;20021;-60
2024/01/22 04:10:12;;;;;;;6.30;3.30;;;;;;;19.57;34.13;100414.13;2098941;28;20028;-60
2024/01/22 04:11:14;;;;;;;6.75;3.67;;;;;;;19.57;34.11;100416.84;2090994;28;20034;-60
2024/01/22 04:12:16;;;;;;;5.03;3.50;;;;;;;19.56;33.89;100409.81;2090830;28;20041;-60
2024/01/22 04:13:19;;;;;;;6.72;4.25;;;;;;;19.57;33.79;100408.66;2099250;28;20135;-60
2024/01/22 04:14:21;;;;;;;7.25;3.65;;;;;;;19.56;33.95;100401.63;2098876;28;20941;-59
2024/01/22 04:15:23;;;;;;;6.30;3.45;;;;;;;19.56;33.97;100409.81;2091181;28;20030;-60
2024/01/22 04:16:25;;;;;;;7.80;4.00;;;;;;;19.57;33.94;100389.56;2091287;28;20033;-60
2024/01/22 04:17:27;;;;;;;6.15;3.80;;;;;;;19.57;33.79;100399.69;2090680;28;20041;-61
2024/01/22 04:18:28;;;;;;;5.93;3.80;;;;;;;19.56;33.81;100407.06;2074139;28;20034;-60
2024/01/22 04:19:30;;;;;;;6.30;4.10;;;;;;;19.56;33.58;100398.91;2074872;28;20018;-60
2024/01/22 04:20:32;;;;;;;7.20;3.88;;;;;;;19.55;33.40;100405.50;2090860;28;20029;-60
2024/01/22 04:21:47;;;;;;;7.80;3.78;;;;;;;19.54;33.31;100390.25;2099399;28;20779;-60
2024/01/22 04:22:50;;;;;;;7.07;3.90;;;;;;;19.53;33.27;100402.31;2099529;28;20103;-61
2024/01/22 04:23:52;;;;;;;8.75;4.00;;;;;;;19.52;33.55;100398.00;2098806;28;20025;-60
2024/01/22 04:24:53;;;;;;;8.07;4.00;;;;;;;19.51;33.27;100382.75;2090733;28;20080;-61
2024/01/22 04:25:54;;;;;;;6.22;3.63;;;;;;;19.49;33.24;100382.31;2091093;28;20029;-60
2024/01/22 04:26:56;;;;;;;6.20;3.55;;;;;;;19.49;33.30;100390.50;2082486;28;20037;-60
2024/01/22 04:27:57;;;;;;;7.05;3.65;;;;;;;19.46;33.27;100383.00;2082984;28;20050;-60
2024/01/22 04:28:59;;;;;;;6.70;3.50;;;;;;;19.46;33.50;100380.28;2082533;28;20041;-60
2024/01/22 04:30:01;;;;;;;9.05;4.00;;;;;;;19.46;33.46;100372.09;2091082;28;20849;-60
2024/01/22 04:31:06;;;;;;;8.10;4.03;;;;;;;19.47;33.56;100378.34;2098562;28;20053;-60
2024/01/22 04:32:08;;;;;;;8.57;3.58;;;;;;;19.46;33.50;100374.81;2091101;28;20022;-61
2024/01/22 04:33:09;;;;;;;6.07;3.80;;;;;;;19.46;33.59;100366.66;2090436;28;20025;-60
2024/01/22 04:34:10;;;;;;;5.30;3.50;;;;;;;19.47;33.52;100373.69;2090968;28;20025;-60
2024/01/22 04:35:12;;;;;;;7.07;3.80;;;;;;;19.47;33.64;100357.31;2073832;28;20928;-60
2024/01/22 04:36:14;;;;;;;6.43;3.38;;;;;;;19.47;33.42;100357.31;2082897;28;20137;-61
2024/01/22 04:37:16;;;;;;;6.05;3.40;;;;;;;19.49;33.32;100355.06;2098844;28;20021;-61
2024/01/22 04:38:17;;;;;;;8.02;3.83;;;;;;;19.49;33.28;100360.50;2090576;28;20757;-61
2024/01/22 04:39:19;;;;;;;6.63;3.70;;;;;;;19.49;33.29;100348.81;2082028;28;20220;-61
2024/01/22 04:40:21;;;;;;;6.72;3.70;;;;;;;19.49;33.14;100355.06;2090704;28;20080;-61
2024/01/22 04:41:25;;;;;;;6.15;3.40;;;;;;;19.49;33.24;100346.09;2098805;28;20024;-60
2024/01/22 04:42:28;;;;;;;6.72;3.30;;;;;;;19.49;33.30;100338.69;2091238;28;20041;-61
2024/01/22 04:43:31;;;;;;;6.20;3.60;;;;;;;19.49;33.17;100338.69;2082615;28;20122;-61
2024/01/22 04:44:33;;;;;;;6.05;3.85;;;;;;;19.50;33.18;100329.38;2091259;28;20092;-60
2024/01/22 04:45:35;;;;;;;7.28;3.95;;;;;;;19.50;33.33;100323.91;2082190;28;20041;-60
2024/01/22 04:46:36;;;;;;;6.20;3.90;;;;;;;19.50;33.24;100329.38;2074535;28;20026;-60
2024/01/22 04:47:38;;;;;;;7.10;4.05;;;;;;;19.51;33.13;100324.69;2090509;28;20025;-60
2024/01/22 04:48:39;;;;;;;6.55;3.63;;;;;;;19.51;33.05;100332.88;2090805;28;20030;-60